Time;durP1;ratioP1;P1;durP2;ratioP2;P2;SDS_P1;SDS_P2;PMS_P1;PMS_P2;Temp;Humidity;BMP_temperature;BMP_pressure;BME280_temperature;BME280_humidity;BME280_pressure;Samples;Min_cycle;Max_cycle;Signal;HPM_P1;HPM_P2
2022/12/03 00:02:11;;;;;;;26.60;14.55;;;3.30;99.90;;;;;;5089990;28;20058;-66
2022/12/03 00:04:36;;;;;;;28.33;15.63;;;3.30;99.90;;;;;;5070827;28;20509;-66
2022/12/03 00:07:02;;;;;;;28.63;15.27;;;3.30;99.90;;;;;;5090911;28;20051;-67
2022/12/03 00:09:28;;;;;;;27.02;15.18;;;3.30;99.90;;;;;;5091857;28;20437;-67
2022/12/03 00:11:53;;;;;;;25.70;15.23;;;3.30;99.90;;;;;;5090302;28;20395;-67
2022/12/03 00:14:19;;;;;;;27.85;15.00;;;3.30;99.90;;;;;;5090157;28;20030;-66
2022/12/03 00:16:45;;;;;;;27.27;14.13;;;3.30;99.90;;;;;;5123847;27;20036;-67
2022/12/03 00:19:10;;;;;;;28.98;15.50;;;3.30;99.90;;;;;;5088970;28;20467;-66
2022/12/03 00:21:36;;;;;;;29.13;15.70;;;3.30;99.90;;;;;;5089808;28;20044;-66
2022/12/03 00:24:02;;;;;;;28.00;15.52;;;3.40;99.90;;;;;;5089652;28;20042;-66
2022/12/03 00:26:27;;;;;;;27.88;15.75;;;3.40;99.90;;;;;;5090896;28;20093;-67
2022/12/03 00:28:53;;;;;;;29.25;16.20;;;3.40;99.90;;;;;;5089321;28;20067;-67
2022/12/03 00:31:22;;;;;;;27.23;15.32;;;3.40;99.90;;;;;;5089488;28;20051;-67
2022/12/03 00:33:51;;;;;;;29.88;16.00;;;3.40;99.90;;;;;;5089774;28;20070;-66
2022/12/03 00:36:17;;;;;;;29.40;15.90;;;3.40;99.90;;;;;;5105703;28;20032;-66
2022/12/03 00:38:43;;;;;;;27.92;16.25;;;3.40;99.90;;;;;;5089349;28;20047;-67
2022/12/03 00:41:08;;;;;;;25.33;15.00;;;3.50;99.90;;;;;;5088364;28;20047;-67
2022/12/03 00:43:34;;;;;;;26.50;15.50;;;3.40;99.90;;;;;;5124214;27;20110;-66
2022/12/03 00:46:00;;;;;;;28.90;15.90;;;3.50;99.90;;;;;;5072597;28;20575;-67
2022/12/03 00:48:25;;;;;;;31.42;16.00;;;3.50;99.90;;;;;;5088632;28;20059;-67
2022/12/03 00:50:51;;;;;;;28.98;16.08;;;3.50;99.90;;;;;;5088986;28;20090;-67
2022/12/03 00:53:17;;;;;;;29.83;15.82;;;3.50;99.90;;;;;;5089222;28;20032;-67
2022/12/03 00:55:43;;;;;;;28.58;15.00;;;3.50;99.90;;;;;;5089342;28;20024;-67
2022/12/03 00:58:08;;;;;;;30.88;16.58;;;3.50;99.90;;;;;;5072177;28;20151;-66
2022/12/03 01:00:35;;;;;;;30.08;15.95;;;3.50;99.90;;;;;;5090191;28;20047;-66
2022/12/03 01:03:00;;;;;;;28.83;15.68;;;3.50;99.90;;;;;;5090710;28;20104;-67
2022/12/03 01:05:26;;;;;;;29.95;16.30;;;3.50;99.90;;;;;;5089095;28;20122;-67
2022/12/03 01:07:52;;;;;;;28.35;15.63;;;3.50;99.90;;;;;;5089233;28;20035;-67
2022/12/03 01:10:17;;;;;;;28.73;16.27;;;3.50;99.90;;;;;;5089432;28;20047;-67
2022/12/03 01:12:43;;;;;;;31.02;16.67;;;3.40;99.90;;;;;;5088796;28;20043;-67
2022/12/03 01:15:09;;;;;;;29.50;16.08;;;3.40;99.90;;;;;;5089246;28;20101;-67
2022/12/03 01:17:35;;;;;;;28.00;15.23;;;3.40;99.90;;;;;;5089828;28;20113;-67
2022/12/03 01:20:01;;;;;;;31.13;16.90;;;3.40;99.90;;;;;;5072713;28;20505;-67
2022/12/03 01:22:27;;;;;;;31.52;16.58;;;3.40;99.90;;;;;;5087676;28;20040;-66
2022/12/03 01:24:53;;;;;;;30.05;16.00;;;3.40;99.90;;;;;;5089008;28;20113;-67
2022/12/03 01:27:18;;;;;;;28.95;16.05;;;3.40;99.90;;;;;;5089223;28;20047;-65
2022/12/03 01:29:44;;;;;;;29.63;15.68;;;3.40;99.90;;;;;;5089243;28;20036;-67
2022/12/03 01:32:16;;;;;;;30.75;16.10;;;3.40;99.90;;;;;;5092230;28;20051;-67
2022/12/03 01:34:43;;;;;;;30.07;16.27;;;3.30;99.90;;;;;;5094300;28;20078;-66
2022/12/03 01:37:08;;;;;;;31.90;17.08;;;3.30;99.90;;;;;;5127448;27;20274;-67
2022/12/03 01:39:34;;;;;;;29.27;15.73;;;3.40;99.90;;;;;;5075731;28;20048;-67
2022/12/03 01:42:00;;;;;;;30.15;15.50;;;3.40;99.90;;;;;;5127130;27;20035;-66
2022/12/03 01:44:31;;;;;;;31.70;16.83;;;3.40;99.90;;;;;;5092730;28;20042;-67
2022/12/03 01:46:59;;;;;;;28.13;15.48;;;3.40;99.90;;;;;;5092464;28;20051;-66
2022/12/03 01:49:39;;;;;;;28.55;15.75;;;3.40;99.90;;;;;;5091987;28;20054;-66
2022/12/03 01:52:09;;;;;;;29.23;15.68;;;3.40;99.90;;;;;;5094192;28;20048;-66
2022/12/03 01:54:42;;;;;;;30.85;16.88;;;3.40;99.90;;;;;;5092628;28;20460;-66
2022/12/03 01:57:37;;;;;;;29.23;16.27;;;3.40;99.90;;;;;;5092492;28;20040;-66
2022/12/03 02:00:03;;;;;;;27.60;16.08;;;3.40;99.90;;;;;;5092828;28;20359;-66
2022/12/03 02:02:31;;;;;;;31.75;16.50;;;3.40;99.90;;;;;;5092099;28;20089;-66
2022/12/03 02:04:57;;;;;;;28.38;15.88;;;3.40;99.90;;;;;;5092330;28;20040;-67
2022/12/03 02:07:29;;;;;;;27.67;15.88;;;3.40;99.90;;;;;;5094731;28;20123;-67
2022/12/03 02:09:57;;;;;;;27.53;16.43;;;3.40;99.90;;;;;;5091954;28;20056;-67
2022/12/03 02:12:36;;;;;;;25.20;14.52;;;3.40;99.90;;;;;;5126832;27;20768;-66
2022/12/03 02:15:04;;;;;;;28.50;15.95;;;3.40;99.90;;;;;;5107316;28;20050;-68
2022/12/03 02:17:30;;;;;;;26.38;15.98;;;3.40;99.90;;;;;;5092291;28;20494;-66
2022/12/03 02:19:57;;;;;;;27.23;16.05;;;3.40;99.90;;;;;;5092142;28;20533;-66
2022/12/03 02:22:47;;;;;;;26.40;15.80;;;3.40;99.90;;;;;;5091950;28;20068;-68
2022/12/03 02:25:20;;;;;;;25.60;15.82;;;3.50;99.90;;;;;;5095144;28;20427;-67
2022/12/03 02:27:47;;;;;;;26.13;16.08;;;3.40;99.90;;;;;;5091853;28;20149;-65
2022/12/03 02:30:16;;;;;;;26.35;15.70;;;3.40;99.90;;;;;;5091666;28;20032;-67
2022/12/03 02:32:42;;;;;;;26.05;15.85;;;3.50;99.90;;;;;;5124576;27;20039;-67
2022/12/03 02:35:19;;;;;;;27.27;16.60;;;3.50;99.90;;;;;;5091683;28;20061;-68
2022/12/03 02:37:46;;;;;;;27.48;16.23;;;3.50;99.90;;;;;;5091535;28;20070;-67
2022/12/03 02:40:17;;;;;;;27.45;15.68;;;3.50;99.90;;;;;;5091787;28;20040;-67
2022/12/03 02:42:44;;;;;;;28.58;16.42;;;3.50;99.90;;;;;;5095430;28;20040;-67
2022/12/03 02:45:15;;;;;;;27.08;16.02;;;3.50;99.90;;;;;;5090055;28;20406;-65
2022/12/03 02:47:44;;;;;;;26.17;16.03;;;3.50;99.90;;;;;;5091856;28;20039;-67
2022/12/03 02:50:13;;;;;;;25.13;15.57;;;3.50;99.90;;;;;;5086695;28;20079;-67
2022/12/03 02:52:41;;;;;;;29.25;16.92;;;3.40;99.90;;;;;;5090304;28;20093;-66
2022/12/03 02:55:07;;;;;;;26.95;15.95;;;3.50;99.90;;;;;;5090592;28;20182;-67
2022/12/03 02:57:35;;;;;;;28.30;16.40;;;3.50;99.90;;;;;;5090365;28;20376;-68
2022/12/03 03:00:01;;;;;;;25.30;16.02;;;3.50;99.90;;;;;;5088146;28;20449;-67
2022/12/03 03:02:27;;;;;;;24.95;15.18;;;3.50;99.90;;;;;;5090893;28;20040;-67
2022/12/03 03:04:54;;;;;;;27.67;17.13;;;3.50;99.90;;;;;;5092259;28;20592;-67
2022/12/03 03:07:20;;;;;;;26.02;16.60;;;3.50;99.90;;;;;;5123790;27;20114;-67
2022/12/03 03:09:45;;;;;;;24.92;15.80;;;3.50;99.90;;;;;;5088049;28;20479;-68
2022/12/03 03:12:11;;;;;;;27.67;16.38;;;3.50;99.90;;;;;;5089991;28;20394;-67
2022/12/03 03:14:37;;;;;;;26.55;16.27;;;3.50;99.90;;;;;;5091012;28;20111;-67
2022/12/03 03:17:03;;;;;;;26.55;15.93;;;3.50;99.90;;;;;;5090840;28;20071;-66
2022/12/03 03:19:29;;;;;;;25.42;16.25;;;3.50;99.90;;;;;;5124285;27;20044;-67
2022/12/03 03:21:55;;;;;;;27.27;16.77;;;3.50;99.90;;;;;;5091180;28;20410;-67
2022/12/03 03:24:22;;;;;;;28.05;17.45;;;3.40;99.90;;;;;;5072404;28;20052;-67
2022/12/03 03:26:48;;;;;;;28.40;17.05;;;3.50;99.90;;;;;;5074444;28;20048;-66
2022/12/03 03:29:14;;;;;;;28.50;17.05;;;3.50;99.90;;;;;;5090905;28;20399;-66
2022/12/03 03:31:42;;;;;;;29.45;17.25;;;3.40;99.90;;;;;;5088253;28;20032;-66
2022/12/03 03:34:09;;;;;;;24.30;15.90;;;3.40;99.90;;;;;;5089802;28;20500;-67
2022/12/03 03:36:35;;;;;;;27.92;16.88;;;3.40;99.90;;;;;;5087931;28;20399;-67
2022/12/03 03:39:01;;;;;;;26.90;16.55;;;3.40;99.90;;;;;;5089905;28;20047;-66
2022/12/03 03:41:27;;;;;;;25.73;15.65;;;3.40;99.90;;;;;;5090625;28;20062;-66
2022/12/03 03:43:53;;;;;;;26.75;16.85;;;3.40;99.90;;;;;;5091745;28;20795;-67
2022/12/03 03:46:20;;;;;;;30.00;17.58;;;3.30;99.90;;;;;;5090172;28;20043;-66
2022/12/03 03:48:47;;;;;;;28.50;16.98;;;3.30;99.90;;;;;;5088680;28;20391;-66
2022/12/03 03:51:14;;;;;;;28.25;16.38;;;3.30;99.90;;;;;;5127469;27;20051;-66
2022/12/03 03:53:44;;;;;;;26.20;15.88;;;3.30;99.90;;;;;;5125973;27;20054;-66
2022/12/03 03:56:10;;;;;;;27.88;17.00;;;3.20;99.90;;;;;;5074491;28;20048;-66
2022/12/03 03:58:36;;;;;;;27.77;16.80;;;3.20;99.90;;;;;;5108944;28;20043;-67
2022/12/03 04:01:02;;;;;;;25.52;15.68;;;3.20;99.90;;;;;;5112445;27;20040;-67
2022/12/03 04:03:28;;;;;;;29.63;17.02;;;3.10;99.90;;;;;;5094041;27;20085;-66
2022/12/03 04:05:54;;;;;;;27.17;16.48;;;3.20;99.90;;;;;;5112015;28;20455;-65
2022/12/03 04:08:19;;;;;;;25.17;15.40;;;3.10;99.90;;;;;;5093206;28;20126;-66
2022/12/03 04:13:29;;;;;;;27.30;16.20;;;3.10;99.90;;;;;;5093034;28;20079;-66
2022/12/03 04:15:55;;;;;;;29.48;16.65;;;3.10;99.90;;;;;;5124652;27;20508;-66
2022/12/03 04:23:49;;;;;;;23.52;14.77;;;3.10;99.90;;;;;;5092991;28;20043;-66
2022/12/03 04:28:58;;;;;;;26.42;15.50;;;3.10;99.90;;;;;;5092697;28;20039;-67
2022/12/03 04:36:54;;;;;;;25.23;15.75;;;3.10;99.90;;;;;;5125804;27;20036;-67
2022/12/03 04:39:19;;;;;;;27.67;15.95;;;3.00;99.90;;;;;;5092704;28;20138;-66
2022/12/03 04:41:45;;;;;;;25.83;15.15;;;3.10;99.90;;;;;;5095038;28;20032;-67
2022/12/03 04:46:55;;;;;;;25.23;15.63;;;3.00;99.90;;;;;;5123114;27;20036;-66
2022/12/03 04:49:21;;;;;;;24.90;15.65;;;3.10;99.90;;;;;;5090895;28;20094;-67
2022/12/03 04:51:46;;;;;;;26.88;16.63;;;3.00;99.90;;;;;;5089353;28;20071;-67
2022/12/03 04:54:12;;;;;;;28.65;17.02;;;3.10;99.90;;;;;;5089854;28;20056;-67
2022/12/03 04:56:37;;;;;;;26.60;16.45;;;3.00;99.90;;;;;;5089243;28;20116;-66
2022/12/03 04:59:03;;;;;;;25.85;15.35;;;3.00;99.90;;;;;;5092351;28;20071;-66
2022/12/03 05:01:29;;;;;;;27.73;15.38;;;3.00;99.90;;;;;;5088942;28;20032;-67
2022/12/03 05:03:54;;;;;;;28.90;16.45;;;3.10;99.90;;;;;;5089642;28;20066;-66
2022/12/03 05:06:21;;;;;;;25.52;15.75;;;3.00;99.90;;;;;;5092967;28;20047;-66
2022/12/03 05:08:46;;;;;;;25.30;15.10;;;3.00;99.90;;;;;;5127710;27;20040;-66
2022/12/03 05:11:12;;;;;;;26.38;15.85;;;3.00;99.90;;;;;;5093265;28;20047;-66
2022/12/03 05:13:38;;;;;;;28.35;16.48;;;3.00;99.90;;;;;;5093108;28;20035;-67
2022/12/03 05:16:03;;;;;;;26.40;15.73;;;3.00;99.90;;;;;;5096138;28;20036;-67
2022/12/03 05:18:29;;;;;;;26.27;15.30;;;3.10;99.90;;;;;;5093291;28;20138;-67
2022/12/03 05:20:55;;;;;;;26.77;16.02;;;3.10;99.90;;;;;;5093282;28;20059;-66
2022/12/03 05:23:21;;;;;;;24.80;15.95;;;3.10;99.90;;;;;;5092833;28;20047;-66
2022/12/03 05:25:46;;;;;;;24.15;15.40;;;3.10;99.90;;;;;;5093199;28;20044;-66
2022/12/03 05:28:12;;;;;;;24.85;16.30;;;3.10;99.90;;;;;;5076393;28;20036;-67
2022/12/03 05:30:38;;;;;;;24.73;14.93;;;3.10;99.90;;;;;;5094240;28;20042;-67
2022/12/03 05:33:03;;;;;;;26.08;15.93;;;3.10;99.90;;;;;;5095657;28;20043;-67
2022/12/03 05:35:29;;;;;;;26.80;15.68;;;3.10;99.90;;;;;;5093086;28;20509;-66
2022/12/03 05:37:55;;;;;;;26.88;15.43;;;3.10;99.90;;;;;;5092829;28;20059;-67
2022/12/03 05:40:20;;;;;;;26.92;15.65;;;3.10;99.90;;;;;;5092899;28;20117;-66
2022/12/03 05:43:00;;;;;;;27.15;15.90;;;3.10;99.90;;;;;;5092538;28;20040;-67
2022/12/03 05:45:30;;;;;;;27.25;16.20;;;3.10;99.90;;;;;;5126684;27;20056;-66
2022/12/03 05:47:57;;;;;;;27.50;16.40;;;3.10;99.90;;;;;;5091594;28;20115;-67
2022/12/03 05:50:25;;;;;;;26.63;16.27;;;3.10;99.90;;;;;;5087728;28;20064;-67
2022/12/03 05:52:51;;;;;;;26.15;16.40;;;3.10;99.90;;;;;;5091712;28;20055;-66
2022/12/03 05:55:17;;;;;;;26.13;15.80;;;3.10;99.90;;;;;;5126651;27;20031;-66
2022/12/03 05:57:43;;;;;;;25.73;15.68;;;3.00;99.90;;;;;;5092612;28;20044;-66
2022/12/03 06:00:18;;;;;;;26.80;15.95;;;3.00;99.90;;;;;;5126823;27;20032;-66
2022/12/03 06:02:44;;;;;;;24.85;15.77;;;3.00;99.90;;;;;;5092392;28;20040;-67
2022/12/03 06:05:11;;;;;;;28.83;16.60;;;3.00;99.90;;;;;;5077523;28;20436;-66
2022/12/03 06:07:37;;;;;;;26.20;16.17;;;3.00;99.90;;;;;;5075539;28;20098;-67
2022/12/03 06:10:07;;;;;;;27.52;16.05;;;3.00;99.90;;;;;;5092198;28;20060;-66
2022/12/03 06:12:33;;;;;;;27.35;16.85;;;3.00;99.90;;;;;;5092565;28;20508;-66
2022/12/03 06:14:59;;;;;;;29.00;16.75;;;3.00;99.90;;;;;;5091751;28;20089;-66
2022/12/03 06:17:25;;;;;;;28.25;16.65;;;3.00;99.90;;;;;;5125610;27;20051;-66
2022/12/03 06:19:51;;;;;;;27.60;16.63;;;3.00;99.90;;;;;;5092341;28;20451;-66
2022/12/03 06:22:17;;;;;;;28.05;17.48;;;3.00;99.90;;;;;;5094800;28;20101;-67
2022/12/03 06:24:43;;;;;;;27.73;16.63;;;3.00;99.90;;;;;;5092057;28;20399;-66
2022/12/03 06:27:08;;;;;;;27.63;16.27;;;3.00;99.90;;;;;;5091786;28;20040;-66
2022/12/03 06:29:34;;;;;;;29.88;17.10;;;3.00;99.90;;;;;;5092047;28;20036;-67
2022/12/03 06:32:00;;;;;;;26.95;16.60;;;3.00;99.90;;;;;;5091753;28;20566;-66
2022/12/03 06:34:25;;;;;;;29.90;16.55;;;3.00;99.90;;;;;;5093487;28;20032;-66
2022/12/03 06:36:51;;;;;;;31.88;17.60;;;2.90;99.90;;;;;;5091718;28;20150;-66
2022/12/03 06:39:17;;;;;;;29.77;16.90;;;2.90;99.90;;;;;;5095311;28;20048;-65
2022/12/03 06:41:43;;;;;;;27.27;15.98;;;2.90;99.90;;;;;;5093143;27;20522;-67
2022/12/03 06:44:09;;;;;;;26.00;15.93;;;2.90;99.90;;;;;;5125706;27;20161;-67
2022/12/03 06:46:34;;;;;;;27.77;16.38;;;2.90;99.90;;;;;;5125454;27;20084;-67
2022/12/03 06:49:00;;;;;;;28.88;16.80;;;2.90;99.90;;;;;;5094083;28;20388;-67
2022/12/03 06:51:25;;;;;;;27.38;15.75;;;3.00;99.90;;;;;;5094795;28;20043;-67
2022/12/03 06:53:51;;;;;;;26.98;16.17;;;2.90;99.90;;;;;;5094724;28;20039;-67
2022/12/03 06:56:17;;;;;;;26.50;15.38;;;2.90;99.90;;;;;;5096152;27;20039;-67
2022/12/03 06:58:43;;;;;;;24.85;15.30;;;2.90;99.90;;;;;;5129043;27;20052;-67
2022/12/03 07:01:08;;;;;;;26.23;15.18;;;2.90;99.90;;;;;;5094739;28;20432;-65
2022/12/03 07:03:34;;;;;;;26.17;15.45;;;3.00;99.90;;;;;;5094660;28;20118;-67
2022/12/03 07:06:00;;;;;;;27.27;15.27;;;3.00;99.90;;;;;;5077591;28;20047;-67
2022/12/03 07:08:26;;;;;;;26.15;15.75;;;3.00;99.90;;;;;;5094358;28;20040;-66
2022/12/03 07:10:51;;;;;;;25.15;14.77;;;3.00;99.90;;;;;;5128742;27;20554;-67
2022/12/03 07:13:17;;;;;;;25.95;15.55;;;3.00;99.90;;;;;;5094576;27;20036;-67
2022/12/03 07:15:43;;;;;;;25.83;14.77;;;3.00;99.90;;;;;;5094084;28;20067;-67
2022/12/03 07:18:08;;;;;;;25.77;15.30;;;3.00;99.90;;;;;;5126930;27;20036;-66
2022/12/03 07:20:34;;;;;;;27.33;16.20;;;3.00;99.90;;;;;;5091187;27;20044;-66
2022/12/03 07:23:00;;;;;;;23.48;15.43;;;3.00;99.90;;;;;;5092561;27;20122;-67
2022/12/03 07:25:25;;;;;;;27.15;16.45;;;2.90;99.90;;;;;;5091091;27;20093;-66
2022/12/03 07:27:51;;;;;;;28.15;15.85;;;3.00;99.90;;;;;;5092321;28;20073;-67
2022/12/03 07:30:17;;;;;;;26.58;16.08;;;3.00;99.90;;;;;;5106937;27;20517;-67
2022/12/03 07:32:42;;;;;;;28.65;15.70;;;3.00;99.90;;;;;;5077539;27;20069;-68
2022/12/03 07:35:08;;;;;;;31.23;17.38;;;3.00;99.90;;;;;;5107701;27;20500;-68
2022/12/03 07:37:34;;;;;;;29.30;16.20;;;3.00;99.90;;;;;;5091085;27;20031;-67
2022/12/03 07:40:00;;;;;;;32.50;17.85;;;2.90;99.90;;;;;;5084989;27;20051;-68
2022/12/03 07:42:25;;;;;;;30.20;17.02;;;3.00;99.90;;;;;;5088596;27;20043;-67
2022/12/03 07:44:51;;;;;;;33.28;17.50;;;2.90;99.90;;;;;;5084077;27;20045;-67
2022/12/03 07:47:16;;;;;;;35.17;20.48;;;3.00;99.90;;;;;;5082964;28;20035;-67
2022/12/03 07:49:43;;;;;;;38.22;21.55;;;2.90;99.90;;;;;;5089676;28;20036;-68
2022/12/03 07:52:08;;;;;;;39.42;22.05;;;2.90;99.90;;;;;;5092243;28;20050;-68
2022/12/03 07:54:34;;;;;;;39.80;21.92;;;2.90;99.90;;;;;;5093492;28;20111;-67
2022/12/03 07:57:00;;;;;;;41.55;22.58;;;2.90;99.90;;;;;;5093151;28;20044;-67
2022/12/03 07:59:25;;;;;;;38.67;22.45;;;2.80;99.90;;;;;;5091718;28;20055;-68
2022/12/03 08:01:51;;;;;;;39.33;21.92;;;2.80;99.90;;;;;;5091744;28;20427;-68
2022/12/03 08:04:17;;;;;;;38.10;21.58;;;2.80;99.90;;;;;;5091494;28;20508;-68
2022/12/03 08:06:44;;;;;;;37.25;22.27;;;2.80;99.90;;;;;;5091399;28;20071;-68
2022/12/03 08:09:10;;;;;;;35.78;21.90;;;2.80;99.90;;;;;;5089993;28;20071;-68
2022/12/03 08:11:36;;;;;;;41.88;23.42;;;2.70;99.90;;;;;;5125421;27;20093;-67
2022/12/03 08:14:10;;;;;;;46.50;24.73;;;2.70;99.90;;;;;;5090117;28;20027;-69
2022/12/03 08:16:41;;;;;;;43.65;24.58;;;2.70;99.90;;;;;;5072394;28;20406;-68
2022/12/03 08:19:11;;;;;;;38.97;22.35;;;2.70;99.90;;;;;;5126244;27;20067;-68
2022/12/03 08:21:38;;;;;;;39.80;22.90;;;2.70;99.90;;;;;;5093691;27;20466;-68
2022/12/03 08:24:17;;;;;;;40.83;23.52;;;2.60;99.90;;;;;;5126821;27;20039;-69
2022/12/03 08:26:44;;;;;;;40.03;23.40;;;2.60;99.90;;;;;;5126397;27;20065;-68
2022/12/03 08:29:16;;;;;;;38.13;22.08;;;2.60;99.90;;;;;;5090557;28;20052;-67
2022/12/03 08:31:50;;;;;;;39.50;23.77;;;2.60;99.90;;;;;;5092173;27;20137;-68
2022/12/03 08:34:16;;;;;;;37.63;21.15;;;2.60;99.90;;;;;;5091747;28;20035;-68
2022/12/03 08:36:42;;;;;;;39.08;21.98;;;2.60;99.90;;;;;;5074364;28;20039;-69
2022/12/03 08:39:33;;;;;;;42.63;23.20;;;2.60;99.90;;;;;;5087208;28;20040;-68
2022/12/03 08:42:42;;;;;;;44.63;24.23;;;2.60;99.90;;;;;;5123402;27;20126;-67
2022/12/03 08:45:38;;;;;;;40.20;22.13;;;2.60;99.90;;;;;;5090749;28;20040;-68
2022/12/03 08:48:35;;;;;;;44.10;23.30;;;2.60;99.90;;;;;;5105199;28;20048;-68
2022/12/03 08:51:26;;;;;;;42.45;22.92;;;2.60;99.90;;;;;;5026071;28;20058;-69
2022/12/03 08:53:58;;;;;;;39.80;21.15;;;2.50;99.90;;;;;;5009950;28;20053;-69
2022/12/03 08:56:26;;;;;;;42.50;22.73;;;2.50;99.90;;;;;;5009817;28;20651;-67
2022/12/03 08:59:01;;;;;;;43.67;23.05;;;2.50;99.90;;;;;;5007830;28;20069;-68
2022/12/03 09:01:32;;;;;;;45.15;23.17;;;2.50;99.90;;;;;;5009733;28;20149;-68
2022/12/03 09:04:14;;;;;;;39.60;21.50;;;2.50;99.90;;;;;;4992279;28;20053;-67
2022/12/03 09:06:40;;;;;;;45.15;23.23;;;2.50;99.90;;;;;;5025621;28;20041;-69
2022/12/03 09:09:05;;;;;;;43.78;23.15;;;2.50;99.90;;;;;;5009482;28;20060;-68
2022/12/03 09:11:31;;;;;;;39.92;21.38;;;2.40;99.90;;;;;;5009418;28;20510;-68
2022/12/03 09:13:56;;;;;;;42.08;23.45;;;2.40;99.90;;;;;;4992478;28;20377;-68
2022/12/03 09:16:22;;;;;;;42.45;22.85;;;2.40;99.90;;;;;;5008979;28;20046;-68
2022/12/03 09:18:48;;;;;;;43.08;23.95;;;2.40;99.90;;;;;;5009895;28;20037;-68
2022/12/03 09:21:13;;;;;;;43.78;23.42;;;2.40;99.90;;;;;;5010198;28;20436;-68
2022/12/03 09:23:39;;;;;;;42.33;23.80;;;2.40;99.90;;;;;;5009991;28;20034;-67
2022/12/03 09:26:04;;;;;;;40.88;22.95;;;2.50;99.90;;;;;;5009394;28;20408;-69
2022/12/03 09:28:30;;;;;;;42.20;23.13;;;2.50;99.90;;;;;;5064106;28;20466;-68
2022/12/03 09:30:56;;;;;;;40.55;21.77;;;2.50;99.90;;;;;;5090756;28;20135;-68
2022/12/03 09:33:21;;;;;;;41.15;22.50;;;2.50;99.90;;;;;;5093704;28;20079;-69
2022/12/03 09:35:47;;;;;;;43.28;22.10;;;2.50;99.90;;;;;;5089922;28;20122;-67
2022/12/03 09:38:13;;;;;;;40.63;21.92;;;2.50;99.90;;;;;;5089163;28;20047;-68
2022/12/03 09:40:38;;;;;;;37.90;21.52;;;2.50;99.90;;;;;;5091914;28;20474;-69
2022/12/03 09:43:04;;;;;;;45.20;22.15;;;2.50;99.90;;;;;;5091888;28;20067;-67
2022/12/03 09:45:30;;;;;;;38.47;21.13;;;2.50;99.90;;;;;;5073706;28;20047;-68
2022/12/03 09:47:56;;;;;;;38.03;20.73;;;2.50;99.90;;;;;;5075899;28;20565;-68
2022/12/03 09:50:25;;;;;;;41.95;22.50;;;2.50;99.90;;;;;;5072000;28;20077;-69
2022/12/03 09:52:53;;;;;;;39.70;21.05;;;2.60;99.90;;;;;;5095125;28;20486;-68
2022/12/03 09:55:25;;;;;;;38.65;21.45;;;2.50;99.90;;;;;;5077358;28;20517;-69
2022/12/03 09:57:52;;;;;;;38.67;20.55;;;2.50;99.90;;;;;;5075883;28;20123;-67
2022/12/03 10:00:28;;;;;;;38.92;21.40;;;2.60;99.90;;;;;;5094086;28;20498;-68
2022/12/03 10:03:00;;;;;;;39.05;21.73;;;2.60;99.90;;;;;;5093735;28;20394;-67
2022/12/03 10:05:27;;;;;;;;;;;2.60;99.90;;;;;;5128241;27;20047;-68
2022/12/03 10:07:59;;;;;;;40.45;21.48;;;2.60;99.90;;;;;;5093357;28;19919;-66
2022/12/03 10:10:25;;;;;;;37.22;21.17;;;2.60;99.90;;;;;;5094181;28;20081;-67
2022/12/03 10:12:51;;;;;;;38.97;20.60;;;2.50;99.90;;;;;;5094651;28;20035;-68
2022/12/03 10:15:21;;;;;;;38.47;21.63;;;2.60;99.90;;;;;;5094680;27;20035;-68
2022/12/03 10:17:49;;;;;;;36.80;20.73;;;2.60;99.90;;;;;;5099788;28;20043;-68
2022/12/03 10:20:17;;;;;;;37.15;21.70;;;2.60;99.90;;;;;;5097069;27;20070;-69
2022/12/03 10:22:42;;;;;;;40.65;22.13;;;2.70;99.90;;;;;;5094719;28;20043;-69
2022/12/03 10:25:15;;;;;;;38.63;21.77;;;2.70;99.90;;;;;;5112129;28;20042;-67
2022/12/03 10:27:41;;;;;;;41.65;22.63;;;2.80;99.90;;;;;;5094104;27;20112;-68
2022/12/03 10:30:16;;;;;;;39.10;22.05;;;2.70;99.90;;;;;;5110735;28;20063;-67
2022/12/03 10:32:47;;;;;;;41.17;22.50;;;2.70;99.90;;;;;;5129368;27;20470;-68
2022/12/03 10:35:16;;;;;;;39.08;21.42;;;2.70;99.90;;;;;;5079387;28;20110;-68
2022/12/03 10:38:01;;;;;;;38.72;21.92;;;2.70;99.90;;;;;;5079929;28;20042;-69
2022/12/03 10:40:30;;;;;;;39.88;21.60;;;2.70;99.90;;;;;;5127685;27;20046;-67
2022/12/03 10:43:17;;;;;;;41.83;22.60;;;2.70;99.90;;;;;;5094410;28;20522;-66
2022/12/03 10:45:47;;;;;;;40.92;21.73;;;2.70;99.90;;;;;;5093766;28;20054;-68
2022/12/03 10:48:19;;;;;;;42.85;22.20;;;2.70;99.90;;;;;;5126665;27;20042;-68
2022/12/03 10:50:58;;;;;;;41.88;22.85;;;2.70;99.90;;;;;;5091237;28;20059;-67
2022/12/03 10:53:30;;;;;;;41.80;23.05;;;2.70;99.90;;;;;;5093869;28;20035;-68
2022/12/03 10:55:59;;;;;;;40.45;21.83;;;2.70;99.90;;;;;;5129509;27;20409;-67
2022/12/03 10:58:27;;;;;;;40.83;22.52;;;2.70;99.90;;;;;;5093306;28;20114;-67
2022/12/03 11:00:55;;;;;;;39.35;21.77;;;2.70;99.90;;;;;;5075366;27;20059;-68
2022/12/03 11:03:24;;;;;;;41.70;23.20;;;2.70;99.90;;;;;;5095261;28;20096;-66
2022/12/03 11:05:50;;;;;;;40.95;23.83;;;2.80;99.90;;;;;;5092295;27;20517;-68
2022/12/03 11:08:25;;;;;;;38.83;22.25;;;2.80;99.90;;;;;;5127663;27;20150;-69
2022/12/03 11:10:59;;;;;;;40.10;22.67;;;2.80;99.90;;;;;;5076225;27;20058;-68
2022/12/03 11:13:37;;;;;;;40.15;22.50;;;2.80;99.90;;;;;;5078828;28;20104;-67
2022/12/03 11:16:07;;;;;;;38.72;22.48;;;2.80;99.90;;;;;;5092717;28;20091;-69
2022/12/03 11:18:35;;;;;;;39.38;22.27;;;2.80;99.90;;;;;;5091198;28;20114;-67
2022/12/03 11:21:11;;;;;;;41.58;23.42;;;2.80;99.90;;;;;;5093388;28;20051;-67
2022/12/03 11:23:46;;;;;;;40.13;22.42;;;2.70;99.90;;;;;;5121814;27;20126;-68
2022/12/03 11:26:12;;;;;;;42.38;23.52;;;2.70;99.90;;;;;;5092086;28;20050;-68
2022/12/03 11:28:53;;;;;;;42.17;22.85;;;2.70;99.90;;;;;;5111012;27;20043;-67
2022/12/03 11:31:37;;;;;;;43.92;23.67;;;2.70;99.90;;;;;;5075188;28;20062;-68
2022/12/03 11:34:18;;;;;;;40.65;22.70;;;2.70;99.90;;;;;;5089566;28;20889;-68
2022/12/03 11:37:09;;;;;;;42.97;23.58;;;2.70;99.90;;;;;;5126310;27;20481;-67
2022/12/03 11:39:43;;;;;;;40.28;22.17;;;2.70;99.90;;;;;;5091178;28;20066;-68
2022/12/03 11:42:24;;;;;;;42.20;23.38;;;2.70;99.90;;;;;;5094419;28;20079;-67
2022/12/03 11:45:05;;;;;;;42.25;22.42;;;2.70;99.90;;;;;;5110725;28;20044;-66
2022/12/03 11:47:36;;;;;;;41.53;23.42;;;2.70;99.90;;;;;;5094079;28;20067;-67
2022/12/03 11:50:18;;;;;;;42.05;22.80;;;2.80;99.90;;;;;;5127768;27;20047;-67
2022/12/03 11:52:45;;;;;;;42.40;22.07;;;2.80;99.90;;;;;;5127731;27;20051;-68
2022/12/03 11:55:21;;;;;;;45.08;23.05;;;2.70;99.90;;;;;;5112113;28;20038;-68
2022/12/03 11:57:47;;;;;;;40.08;22.88;;;2.80;99.90;;;;;;5093551;28;20035;-69
2022/12/03 12:00:22;;;;;;;43.05;23.48;;;2.80;99.90;;;;;;5093935;28;20046;-67
2022/12/03 12:02:49;;;;;;;40.80;22.48;;;2.80;99.90;;;;;;5093539;28;20090;-67
2022/12/03 12:05:22;;;;;;;38.92;21.25;;;2.80;99.90;;;;;;5093650;28;20027;-68
2022/12/03 12:07:48;;;;;;;39.58;21.52;;;2.80;99.90;;;;;;5093798;28;20435;-69
2022/12/03 12:10:38;;;;;;;36.67;22.02;;;2.80;99.90;;;;;;5093567;28;20045;-67
2022/12/03 12:13:04;;;;;;;39.58;22.55;;;2.80;99.90;;;;;;5064740;28;20104;-67
2022/12/03 12:15:39;;;;;;;39.35;23.70;;;2.90;99.90;;;;;;5075595;28;20482;-68
2022/12/03 12:18:37;;;;;;;39.50;22.17;;;2.80;99.90;;;;;;5093353;28;20390;-69
2022/12/03 12:21:40;;;;;;;42.35;22.00;;;2.90;99.90;;;;;;5093391;28;20043;-68
2022/12/03 12:24:42;;;;;;;39.13;22.40;;;2.80;99.90;;;;;;5093458;28;20478;-67
2022/12/03 12:27:10;;;;;;;37.15;21.67;;;2.80;99.90;;;;;;5031837;28;20091;-68
2022/12/03 12:29:37;;;;;;;40.67;22.08;;;2.80;99.90;;;;;;5031756;28;20088;-68
2022/12/03 12:32:09;;;;;;;37.78;22.55;;;2.80;99.90;;;;;;5031874;28;20534;-67
2022/12/03 12:34:40;;;;;;;41.07;24.23;;;2.80;99.90;;;;;;5032163;28;20083;-68
2022/12/03 12:37:11;;;;;;;38.17;21.75;;;2.80;99.90;;;;;;5031847;28;20357;-67
2022/12/03 12:39:37;;;;;;;39.10;22.73;;;2.80;99.90;;;;;;5015501;28;20060;-67
2022/12/03 12:42:22;;;;;;;40.75;22.63;;;2.80;99.90;;;;;;5031547;28;20095;-67
2022/12/03 12:44:49;;;;;;;38.42;22.20;;;2.80;99.90;;;;;;5031527;28;20076;-66
2022/12/03 12:47:14;;;;;;;40.67;22.75;;;2.80;99.90;;;;;;5031574;28;20045;-66
2022/12/03 12:49:40;;;;;;;39.83;22.85;;;2.80;99.90;;;;;;5031301;28;20620;-68
2022/12/03 12:52:12;;;;;;;42.45;22.98;;;2.80;99.90;;;;;;5031494;28;20044;-68
2022/12/03 12:54:38;;;;;;;42.17;22.50;;;2.70;99.90;;;;;;5048458;28;20056;-67
2022/12/03 12:57:12;;;;;;;39.75;24.02;;;2.70;99.90;;;;;;5031419;28;20049;-67
2022/12/03 12:59:38;;;;;;;44.10;25.13;;;2.70;99.90;;;;;;5014856;28;20045;-69
2022/12/03 13:02:33;;;;;;;43.20;24.58;;;2.70;99.90;;;;;;5031101;28;20488;-69
2022/12/03 13:05:02;;;;;;;39.53;21.85;;;2.60;99.90;;;;;;5072322;28;20513;-67
2022/12/03 13:07:27;;;;;;;40.13;23.30;;;2.60;99.90;;;;;;5109588;28;20402;-68